createdAt,value
2022-11-22T00:02:43.167Z,7.60
2022-11-22T00:07:52.498Z,7.60
2022-11-22T00:13:07.913Z,7.60
2022-11-22T00:18:22.932Z,7.70
2022-11-22T00:35:45.606Z,7.90
2022-11-22T00:40:49.415Z,8.10
2022-11-22T00:45:58.562Z,7.80
2022-11-22T00:51:01.922Z,7.80
2022-11-22T00:56:05.113Z,7.70
2022-11-22T01:01:14.755Z,7.60
2022-11-22T01:06:22.270Z,7.60
2022-11-22T01:11:32.757Z,7.60
2022-11-22T01:16:40.623Z,7.70
2022-11-22T01:21:50.655Z,7.80
2022-11-22T01:27:01.986Z,7.90
2022-11-22T01:32:36.950Z,8.10
2022-11-22T01:38:07.178Z,8.20
2022-11-22T01:49:25.978Z,8.20
2022-11-22T01:55:25.307Z,8.30
2022-11-22T02:00:32.986Z,8.40
2022-11-22T02:05:38.536Z,8.50
2022-11-22T02:11:03.712Z,8.50
2022-11-22T02:16:17.173Z,8.50
2022-11-22T02:22:06.050Z,8.40
2022-11-22T02:58:42.997Z,8.30
2022-11-22T03:04:06.021Z,8.20
2022-11-22T03:10:12.487Z,8.30
2022-11-22T03:15:56.102Z,8.10
2022-11-22T03:39:23.134Z,9.00
2022-11-22T03:51:42.441Z,9.20
2022-11-22T04:17:48.838Z,9.30
2022-11-22T04:24:20.649Z,9.40
2022-11-22T05:24:08.215Z,8.40
2022-11-22T05:29:51.199Z,8.60
2022-11-22T05:42:12.597Z,9.00
2022-11-22T05:47:18.508Z,8.90
2022-11-22T06:17:26.572Z,8.50
2022-11-22T06:22:37.664Z,8.60
2022-11-22T06:27:46.300Z,8.50
2022-11-22T06:32:56.278Z,8.30
2022-11-22T06:38:05.470Z,8.50
2022-11-22T06:43:13.409Z,8.60
2022-11-22T06:48:20.702Z,8.30
2022-11-22T06:53:46.383Z,8.00
2022-11-22T06:58:54.646Z,8.00
2022-11-22T07:04:04.305Z,7.90
2022-11-22T07:09:20.249Z,7.80
2022-11-22T07:14:24.382Z,7.80
2022-11-22T07:19:32.778Z,7.70
2022-11-22T07:24:38.776Z,7.70
2022-11-22T07:29:45.461Z,7.80
2022-11-22T07:34:48.878Z,7.90
2022-11-22T07:39:54.417Z,7.90
2022-11-22T07:45:00.972Z,8.00
2022-11-22T07:50:04.434Z,8.10
2022-11-22T07:55:14.091Z,8.10
2022-11-22T08:00:22.632Z,8.20
2022-11-22T08:05:30.937Z,8.40
2022-11-22T08:10:52.029Z,8.60
2022-11-22T08:16:03.672Z,8.80
2022-11-22T08:21:15.912Z,8.90
2022-11-22T08:26:26.053Z,9.10
2022-11-22T08:31:31.445Z,9.30
2022-11-22T08:36:37.573Z,9.40
2022-11-22T08:41:51.623Z,9.10
2022-11-22T08:47:05.307Z,8.90
2022-11-22T08:52:34.491Z,8.80
2022-11-22T08:58:06.769Z,8.70
2022-11-22T09:08:55.382Z,8.70
2022-11-22T09:14:07.475Z,8.80
2022-11-22T09:19:11.714Z,8.90
2022-11-22T09:24:21.008Z,9.20
2022-11-22T09:34:50.622Z,9.50
2022-11-22T09:39:59.339Z,10.10
2022-11-22T09:45:36.655Z,10.30
2022-11-22T09:51:11.212Z,10.20
2022-11-22T09:56:18.593Z,10.20
2022-11-22T10:01:28.215Z,10.50
2022-11-22T10:06:48.107Z,10.70
2022-11-22T10:12:12.741Z,10.80
2022-11-22T10:18:05.550Z,11.00
2022-11-22T10:23:19.989Z,11.00
2022-11-22T10:28:51.774Z,10.80
2022-11-22T10:34:43.362Z,11.00
2022-11-22T10:40:24.300Z,11.10
2022-11-22T10:45:41.803Z,11.10
2022-11-22T11:03:54.652Z,11.60
2022-11-22T11:10:09.070Z,11.50
2022-11-22T11:15:22.480Z,11.40
2022-11-22T11:21:20.803Z,11.50
2022-11-22T11:27:25.167Z,11.60
2022-11-22T11:33:31.201Z,11.70
2022-11-22T11:39:29.645Z,11.70
2022-11-22T11:50:45.638Z,11.60
2022-11-22T11:57:06.297Z,11.90
2022-11-22T12:09:14.454Z,10.90
2022-11-22T12:14:42.936Z,11.00
2022-11-22T12:26:04.838Z,11.00
2022-11-22T12:38:04.495Z,11.30
2022-11-22T12:43:36.471Z,11.60
2022-11-22T12:49:32.705Z,11.90
2022-11-22T12:54:58.118Z,12.10
2022-11-22T13:00:30.489Z,12.30
2022-11-22T13:06:10.756Z,12.30
2022-11-22T13:17:55.848Z,11.80
2022-11-22T13:23:59.204Z,11.80
2022-11-22T13:29:35.335Z,11.70
2022-11-22T13:40:54.962Z,11.80
2022-11-22T13:46:52.107Z,11.80
2022-11-22T13:53:11.474Z,11.90
2022-11-22T14:04:52.575Z,11.70
2022-11-22T14:10:03.868Z,11.70
2022-11-22T14:16:06.429Z,11.60
2022-11-22T14:22:33.067Z,11.60
2022-11-22T14:28:23.671Z,11.60
2022-11-22T14:39:58.631Z,11.60
2022-11-22T14:57:10.503Z,11.50
2022-11-22T15:03:28.775Z,11.40
2022-11-22T15:09:46.622Z,11.20
